createdAt,value
2018-05-31T00:01:01.261Z,27.20
2018-05-31T00:03:35.548Z,27.10
2018-05-31T00:06:09.896Z,27.00
2018-05-31T00:08:44.216Z,27.10
2018-05-31T00:11:18.764Z,27.10
2018-05-31T00:13:53.287Z,27.20
2018-05-31T00:16:27.784Z,27.20
2018-05-31T00:19:02.819Z,27.20
2018-05-31T00:21:37.281Z,27.10
2018-05-31T00:24:11.556Z,27.20
2018-05-31T00:26:46.593Z,27.20
2018-05-31T00:29:21.749Z,27.10
2018-05-31T00:31:57.603Z,27.10
2018-05-31T00:34:31.921Z,27.10
2018-05-31T00:37:06.252Z,27.20
2018-05-31T00:39:40.584Z,27.20
2018-05-31T00:42:15.297Z,27.20
2018-05-31T00:44:49.660Z,27.10
2018-05-31T00:47:24.033Z,27.10
2018-05-31T00:49:58.400Z,27.20
2018-05-31T00:52:32.749Z,27.20
2018-05-31T00:55:07.312Z,27.20
2018-05-31T00:57:41.592Z,27.20
2018-05-31T01:00:16.235Z,27.20
2018-05-31T01:02:50.664Z,27.20
2018-05-31T01:05:25.190Z,27.10
2018-05-31T01:07:59.440Z,27.20
2018-05-31T01:10:34.224Z,27.20
2018-05-31T01:13:08.749Z,27.20
2018-05-31T01:15:43.171Z,27.20
2018-05-31T01:18:17.476Z,27.10
2018-05-31T01:20:51.812Z,27.10
2018-05-31T01:23:26.324Z,27.10
2018-05-31T01:26:00.864Z,27.10
2018-05-31T01:28:35.188Z,27.10
2018-05-31T01:31:09.690Z,27.00
2018-05-31T01:33:44.833Z,27.00
2018-05-31T01:36:19.261Z,27.00
2018-05-31T01:38:53.681Z,27.00
2018-05-31T01:41:28.284Z,27.00
2018-05-31T01:44:03.425Z,27.00
2018-05-31T01:46:38.465Z,27.00
2018-05-31T01:49:12.992Z,26.90
2018-05-31T01:51:47.313Z,27.00
2018-05-31T01:54:21.636Z,27.00
2018-05-31T01:56:55.984Z,27.00
2018-05-31T01:59:30.444Z,27.00
2018-05-31T02:02:04.969Z,27.00
2018-05-31T02:04:39.425Z,27.00
2018-05-31T02:07:13.740Z,27.00
2018-05-31T02:09:48.157Z,27.00
2018-05-31T02:12:22.536Z,27.00
2018-05-31T02:14:56.968Z,27.00
2018-05-31T02:17:31.336Z,27.00
2018-05-31T02:20:05.673Z,27.00
2018-05-31T02:22:40.070Z,27.00
2018-05-31T02:25:14.350Z,27.00
2018-05-31T02:27:49.500Z,26.60
2018-05-31T02:30:23.825Z,26.60
2018-05-31T02:32:58.557Z,26.60
2018-05-31T02:35:32.824Z,26.20
2018-05-31T02:38:07.292Z,26.30
2018-05-31T02:40:41.608Z,26.40
2018-05-31T02:43:16.730Z,26.60
2018-05-31T02:45:51.063Z,26.60
2018-05-31T02:48:26.309Z,26.80
2018-05-31T02:51:00.728Z,26.70
2018-05-31T02:53:35.358Z,26.80
2018-05-31T02:56:09.610Z,26.90
2018-05-31T02:58:43.956Z,26.90
2018-05-31T03:01:18.212Z,26.90
2018-05-31T03:03:52.519Z,26.90
2018-05-31T03:06:27.542Z,26.90
2018-05-31T03:09:02.066Z,26.90
2018-05-31T03:11:37.384Z,26.90
2018-05-31T03:14:11.852Z,26.90
2018-05-31T03:16:46.366Z,26.90
2018-05-31T03:19:20.888Z,26.90
2018-05-31T03:21:55.416Z,26.90
2018-05-31T03:24:29.716Z,26.90
2018-05-31T03:27:03.952Z,26.90
2018-05-31T03:29:38.272Z,26.90
2018-05-31T03:32:12.684Z,26.90
2018-05-31T03:34:47.076Z,26.90
2018-05-31T03:37:21.324Z,27.00
2018-05-31T03:39:56.445Z,27.10
2018-05-31T03:42:31.810Z,27.10
2018-05-31T03:45:06.237Z,27.00
2018-05-31T03:47:40.754Z,27.10
2018-05-31T03:50:15.066Z,27.20
2018-05-31T03:52:49.358Z,27.20
2018-05-31T03:55:23.717Z,26.40
2018-05-31T03:57:58.032Z,24.80
2018-05-31T04:00:32.455Z,24.10
2018-05-31T04:03:06.845Z,23.60
2018-05-31T04:05:41.280Z,23.30
2018-05-31T04:08:17.333Z,22.90
2018-05-31T04:10:51.864Z,22.80
2018-05-31T04:13:26.192Z,23.00
2018-05-31T04:16:00.450Z,22.90
2018-05-31T04:18:34.772Z,23.10
2018-05-31T04:21:09.032Z,23.10
2018-05-31T04:23:43.336Z,22.60
2018-05-31T04:26:17.984Z,22.10
2018-05-31T04:28:53.825Z,22.20
2018-05-31T04:31:28.200Z,22.20
2018-05-31T04:34:02.669Z,22.60
2018-05-31T04:36:37.100Z,22.80
2018-05-31T04:39:11.600Z,23.40
2018-05-31T04:41:46.137Z,24.10
2018-05-31T04:44:20.768Z,24.50
2018-05-31T04:46:55.497Z,24.20
2018-05-31T04:49:29.916Z,24.60
2018-05-31T04:52:04.328Z,25.00
2018-05-31T04:54:39.568Z,24.80
2018-05-31T04:57:14.100Z,24.80
2018-05-31T04:59:48.648Z,24.70
2018-05-31T05:02:23.153Z,24.70
2018-05-31T05:04:57.791Z,24.20
2018-05-31T05:07:32.260Z,24.60
2018-05-31T05:10:06.816Z,24.10
2018-05-31T05:12:41.116Z,23.50
2018-05-31T05:15:15.657Z,23.30
2018-05-31T05:17:50.080Z,23.40
2018-05-31T05:20:24.460Z,23.10
2018-05-31T05:22:58.829Z,23.00
2018-05-31T05:25:33.101Z,23.70
2018-05-31T05:28:09.065Z,22.80
2018-05-31T05:30:43.504Z,22.80
2018-05-31T05:33:18.532Z,23.10
2018-05-31T05:35:52.870Z,23.00
2018-05-31T05:38:27.392Z,23.40
2018-05-31T05:41:01.724Z,22.90
2018-05-31T05:43:36.194Z,22.90
2018-05-31T05:46:10.448Z,22.80
2018-05-31T05:48:44.867Z,23.20
2018-05-31T05:51:19.388Z,23.20
2018-05-31T05:53:54.736Z,23.10
2018-05-31T05:56:29.164Z,23.00
2018-05-31T05:59:03.678Z,23.30
2018-05-31T06:01:38.112Z,23.20
2018-05-31T06:04:12.517Z,23.50
2018-05-31T06:06:47.044Z,23.90
2018-05-31T06:09:21.668Z,24.20
2018-05-31T06:11:56.059Z,24.40
2018-05-31T06:14:30.715Z,24.60
2018-05-31T06:17:05.101Z,24.50
2018-05-31T06:19:39.650Z,24.30
2018-05-31T06:22:13.948Z,24.20
2018-05-31T06:24:48.380Z,24.00
2018-05-31T06:27:22.916Z,23.90
2018-05-31T06:29:57.537Z,24.10
2018-05-31T06:32:31.964Z,24.30
2018-05-31T06:35:06.240Z,24.70
2018-05-31T06:37:40.552Z,24.90
2018-05-31T06:40:14.824Z,24.70
2018-05-31T06:42:49.241Z,24.40
2018-05-31T06:45:23.866Z,24.30
2018-05-31T06:47:59.154Z,24.60
2018-05-31T06:50:34.332Z,24.80
2018-05-31T06:53:08.868Z,24.80
2018-05-31T06:55:43.161Z,24.80
2018-05-31T06:58:17.505Z,25.10
2018-05-31T07:00:52.560Z,25.00
2018-05-31T07:03:26.899Z,25.00
2018-05-31T07:06:01.281Z,25.40
2018-05-31T07:08:36.625Z,25.00
2018-05-31T07:11:11.141Z,25.00
2018-05-31T07:13:45.470Z,24.80
2018-05-31T07:16:19.752Z,25.00
2018-05-31T07:18:54.052Z,25.20
2018-05-31T07:21:29.243Z,25.10
2018-05-31T07:24:03.729Z,25.00
2018-05-31T07:26:38.283Z,25.40
2018-05-31T07:29:12.700Z,25.20
2018-05-31T07:31:47.223Z,25.30
2018-05-31T07:34:21.748Z,25.30
2018-05-31T07:36:56.173Z,25.40
2018-05-31T07:39:30.589Z,25.70
2018-05-31T07:42:04.964Z,25.50
2018-05-31T07:44:39.440Z,25.30
2018-05-31T07:47:13.711Z,25.30
2018-05-31T07:49:48.169Z,25.80
2018-05-31T07:52:23.413Z,25.90
2018-05-31T07:54:57.833Z,25.90
2018-05-31T07:57:32.244Z,26.10
2018-05-31T08:00:06.668Z,26.40
2018-05-31T08:02:41.689Z,27.20
2018-05-31T08:05:16.005Z,27.10
2018-05-31T08:07:51.284Z,27.10
2018-05-31T08:10:25.584Z,27.00
2018-05-31T08:12:59.888Z,26.50
2018-05-31T08:15:34.313Z,26.50
2018-05-31T08:18:08.719Z,27.30
2018-05-31T08:20:43.162Z,27.60
2018-05-31T08:23:17.587Z,27.90
2018-05-31T08:25:51.976Z,27.50
2018-05-31T08:28:26.425Z,27.60
2018-05-31T08:31:00.828Z,28.20
2018-05-31T08:33:35.153Z,28.30
2018-05-31T08:36:09.499Z,28.40
2018-05-31T08:38:43.777Z,28.70
2018-05-31T08:41:19.748Z,27.70
2018-05-31T08:43:54.147Z,27.80
2018-05-31T08:46:29.317Z,28.40
2018-05-31T08:49:05.168Z,28.60
2018-05-31T08:51:39.566Z,28.60
2018-05-31T08:54:13.996Z,28.70
2018-05-31T08:56:48.349Z,28.80
2018-05-31T08:59:22.652Z,28.70
2018-05-31T09:01:57.139Z,28.70
2018-05-31T09:04:31.584Z,28.70
2018-05-31T09:07:06.004Z,28.70
2018-05-31T09:09:40.301Z,28.80
2018-05-31T09:12:14.724Z,28.80
2018-05-31T09:14:49.244Z,28.90
2018-05-31T09:17:23.593Z,28.90
2018-05-31T09:19:58.094Z,28.90
2018-05-31T09:22:32.344Z,28.90
2018-05-31T09:25:06.652Z,29.00
2018-05-31T09:27:41.172Z,29.00
2018-05-31T09:30:15.481Z,28.90
2018-05-31T09:32:49.776Z,29.00
2018-05-31T09:35:24.297Z,29.10
2018-05-31T09:37:59.449Z,29.00
2018-05-31T09:40:34.592Z,29.10
2018-05-31T09:43:09.229Z,29.00
2018-05-31T09:45:43.620Z,29.10
2018-05-31T09:48:18.022Z,29.10
2018-05-31T09:50:52.368Z,29.20
2018-05-31T09:53:27.600Z,29.10
2018-05-31T09:56:01.921Z,29.00
2018-05-31T09:58:36.385Z,29.10
2018-05-31T10:01:11.088Z,29.00
2018-05-31T10:03:45.522Z,29.10
2018-05-31T10:06:19.935Z,29.10
2018-05-31T10:08:54.361Z,29.20
2018-05-31T10:11:28.753Z,29.20
2018-05-31T10:14:03.298Z,29.20
2018-05-31T10:16:37.927Z,29.10
2018-05-31T10:19:12.430Z,29.10
2018-05-31T10:21:47.453Z,29.30
2018-05-31T10:24:22.005Z,29.20
2018-05-31T10:26:56.259Z,29.20
2018-05-31T10:29:30.848Z,29.20
2018-05-31T10:32:05.372Z,29.20
2018-05-31T10:34:39.756Z,29.20
2018-05-31T10:37:15.517Z,29.10
2018-05-31T10:39:50.777Z,29.10
2018-05-31T10:42:25.308Z,29.10
2018-05-31T10:44:59.805Z,29.10
2018-05-31T10:47:34.048Z,29.20
2018-05-31T10:50:08.321Z,29.10
2018-05-31T10:52:42.737Z,29.20
2018-05-31T10:55:17.077Z,29.20
2018-05-31T10:57:51.425Z,29.20
2018-05-31T11:00:26.049Z,29.20
2018-05-31T11:03:00.645Z,29.10
2018-05-31T11:05:34.968Z,29.20
2018-05-31T11:08:09.492Z,29.10
2018-05-31T11:10:43.804Z,28.90
2018-05-31T11:13:18.150Z,28.90
2018-05-31T11:15:52.452Z,28.70
2018-05-31T11:18:27.811Z,28.80
2018-05-31T11:21:02.415Z,28.80
2018-05-31T11:23:38.236Z,29.00
2018-05-31T11:26:12.818Z,29.00
2018-05-31T11:28:47.332Z,29.10
2018-05-31T11:31:21.761Z,29.20
2018-05-31T11:33:57.060Z,29.20
2018-05-31T11:36:31.621Z,29.20
2018-05-31T11:39:06.013Z,29.20
2018-05-31T11:41:40.321Z,29.10
2018-05-31T11:44:14.785Z,29.10
2018-05-31T11:46:49.113Z,29.00
2018-05-31T11:49:23.729Z,29.00
2018-05-31T11:51:58.096Z,29.00
2018-05-31T11:54:32.764Z,28.90
2018-05-31T11:57:07.197Z,28.70
2018-05-31T11:59:41.486Z,28.60
2018-05-31T12:02:16.525Z,28.80
2018-05-31T12:04:50.928Z,28.80
2018-05-31T12:07:25.276Z,28.90
2018-05-31T12:10:00.013Z,28.90
2018-05-31T12:12:34.428Z,29.00
2018-05-31T12:15:08.852Z,29.00
2018-05-31T12:17:43.108Z,28.90
2018-05-31T12:20:17.460Z,29.00
2018-05-31T12:22:51.990Z,29.00
2018-05-31T12:25:26.457Z,28.90
2018-05-31T12:28:01.057Z,29.00
2018-05-31T12:30:35.447Z,29.00
2018-05-31T12:33:09.996Z,29.00
2018-05-31T12:35:44.620Z,29.10
2018-05-31T12:38:19.052Z,29.10
2018-05-31T12:40:53.512Z,29.00
2018-05-31T12:43:27.781Z,28.80
2018-05-31T12:46:02.165Z,28.90
2018-05-31T12:48:36.515Z,28.90
2018-05-31T12:51:10.964Z,29.00
2018-05-31T12:53:45.483Z,29.00
2018-05-31T12:56:19.992Z,29.00
2018-05-31T12:58:54.424Z,29.10
2018-05-31T13:01:28.695Z,29.10
2018-05-31T13:04:03.096Z,29.10
2018-05-31T13:06:37.473Z,29.10
2018-05-31T13:09:11.889Z,29.00
2018-05-31T13:11:46.200Z,29.10
2018-05-31T13:14:20.530Z,29.00
2018-05-31T13:16:54.975Z,28.80
2018-05-31T13:19:29.352Z,28.80
2018-05-31T13:22:03.620Z,28.80
2018-05-31T13:24:37.898Z,28.90
2018-05-31T13:27:12.426Z,28.90
2018-05-31T13:29:46.848Z,28.90
2018-05-31T13:32:21.376Z,28.80
2018-05-31T13:34:55.785Z,28.90
2018-05-31T13:37:30.107Z,28.90
2018-05-31T13:40:05.117Z,29.00
2018-05-31T13:42:39.535Z,29.00
2018-05-31T13:45:14.090Z,29.10
2018-05-31T13:47:48.864Z,29.10
2018-05-31T13:50:23.304Z,29.10
2018-05-31T13:52:57.727Z,29.10
2018-05-31T13:55:32.774Z,29.20
2018-05-31T13:58:07.157Z,29.20
2018-05-31T14:00:41.437Z,29.10
2018-05-31T14:03:15.824Z,29.00
2018-05-31T14:05:50.368Z,29.10
2018-05-31T14:08:24.741Z,29.00
2018-05-31T14:10:59.154Z,28.90
2018-05-31T14:13:33.548Z,28.90
2018-05-31T14:16:07.840Z,29.10
2018-05-31T14:18:42.368Z,28.90
2018-05-31T14:21:16.696Z,29.00
2018-05-31T14:23:51.292Z,29.00
2018-05-31T14:26:25.575Z,29.00
2018-05-31T14:29:00.078Z,28.90
2018-05-31T14:31:34.448Z,28.70
2018-05-31T14:34:08.901Z,28.70
2018-05-31T14:36:43.410Z,28.70
2018-05-31T14:39:18.040Z,28.80
2018-05-31T14:41:52.573Z,28.70
2018-05-31T14:44:26.905Z,28.70
2018-05-31T14:47:01.408Z,28.80
2018-05-31T14:49:35.700Z,28.70
2018-05-31T14:52:10.150Z,28.60
2018-05-31T14:54:44.874Z,28.50
2018-05-31T14:57:19.180Z,28.40
2018-05-31T14:59:53.720Z,28.50
2018-05-31T15:02:28.932Z,28.60
2018-05-31T15:05:03.353Z,28.60
2018-05-31T15:07:37.768Z,28.70
2018-05-31T15:10:12.297Z,28.70
2018-05-31T15:12:46.609Z,28.80
2018-05-31T15:15:21.160Z,28.80
2018-05-31T15:17:55.584Z,28.80
2018-05-31T15:20:29.863Z,28.80
2018-05-31T15:23:04.164Z,28.80
2018-05-31T15:25:38.512Z,28.80
2018-05-31T15:28:12.829Z,28.80
2018-05-31T15:30:47.381Z,28.80
2018-05-31T15:33:22.362Z,28.80
2018-05-31T15:36:00.857Z,28.80
2018-05-31T15:38:35.149Z,28.80
2018-05-31T15:41:09.564Z,28.80
2018-05-31T15:43:43.833Z,28.90
2018-05-31T15:46:18.189Z,28.90
2018-05-31T15:48:52.656Z,28.90
2018-05-31T15:51:27.021Z,28.80
2018-05-31T15:54:01.272Z,28.90
2018-05-31T15:56:35.957Z,28.90
2018-05-31T15:59:10.209Z,28.80
2018-05-31T16:01:44.631Z,27.70
2018-05-31T16:04:19.732Z,26.50
2018-05-31T16:06:54.180Z,26.40
2018-05-31T16:09:28.540Z,26.10
2018-05-31T16:12:03.097Z,25.80
2018-05-31T16:14:42.110Z,25.90
2018-05-31T16:17:16.544Z,25.80
2018-05-31T16:19:51.038Z,25.30
2018-05-31T16:22:25.419Z,25.40
2018-05-31T16:24:59.832Z,25.20
2018-05-31T16:27:34.133Z,25.20
2018-05-31T16:30:08.655Z,25.20
2018-05-31T16:32:43.098Z,25.20
2018-05-31T16:35:17.391Z,24.90
2018-05-31T16:37:51.672Z,25.00
2018-05-31T16:40:42.932Z,24.90
2018-05-31T16:43:17.241Z,25.40
2018-05-31T16:45:51.672Z,25.60
2018-05-31T16:48:26.709Z,25.20
2018-05-31T16:51:01.172Z,25.20
2018-05-31T16:53:35.640Z,25.00
2018-05-31T16:56:10.192Z,24.60
2018-05-31T16:58:44.549Z,24.90
2018-05-31T17:01:18.977Z,24.90
2018-05-31T17:03:53.220Z,24.80
2018-05-31T17:06:27.640Z,24.50
2018-05-31T17:09:02.789Z,24.30
2018-05-31T17:11:37.202Z,24.20
2018-05-31T17:14:12.196Z,24.80
2018-05-31T17:16:47.621Z,25.30
2018-05-31T17:19:22.149Z,25.40
2018-05-31T17:21:56.544Z,25.10
2018-05-31T17:24:30.981Z,25.20
2018-05-31T17:27:05.341Z,25.00
2018-05-31T17:29:39.604Z,25.00
2018-05-31T17:32:13.869Z,24.40
2018-05-31T17:34:48.285Z,24.70
2018-05-31T17:37:22.673Z,24.80
2018-05-31T17:39:57.188Z,25.00
2018-05-31T17:42:31.436Z,24.80
2018-05-31T17:45:06.036Z,23.90
2018-05-31T17:47:40.589Z,24.10
2018-05-31T17:50:14.973Z,23.80
2018-05-31T17:52:49.408Z,24.00
2018-05-31T17:55:23.952Z,23.90
2018-05-31T17:57:58.264Z,23.90
2018-05-31T18:00:32.555Z,24.70
2018-05-31T18:03:06.843Z,24.40
2018-05-31T18:05:41.360Z,24.20
2018-05-31T18:08:15.717Z,24.30
2018-05-31T18:10:50.953Z,23.90
2018-05-31T18:13:25.548Z,24.40
2018-05-31T18:16:00.716Z,23.90
2018-05-31T18:18:35.009Z,23.80
2018-05-31T18:21:09.445Z,23.70
2018-05-31T18:23:43.753Z,23.60
2018-05-31T18:26:18.094Z,23.70
2018-05-31T18:28:52.460Z,23.90
2018-05-31T18:31:26.757Z,24.10
2018-05-31T18:34:01.184Z,24.00
2018-05-31T18:36:35.488Z,23.80
2018-05-31T18:39:09.993Z,23.60
2018-05-31T18:41:44.268Z,24.00
2018-05-31T18:44:18.583Z,23.80
2018-05-31T18:46:53.052Z,23.60
2018-05-31T18:49:27.437Z,23.40
2018-05-31T18:52:01.999Z,23.60
2018-05-31T18:54:36.420Z,23.60
2018-05-31T18:57:11.034Z,23.60
2018-05-31T18:59:45.330Z,23.30
2018-05-31T19:02:19.780Z,22.90
2018-05-31T19:04:54.884Z,22.90
2018-05-31T19:07:30.445Z,22.80
2018-05-31T19:10:04.982Z,22.80
2018-05-31T19:12:45.081Z,22.60
2018-05-31T19:15:21.767Z,22.80
2018-05-31T19:17:53.848Z,23.00
2018-05-31T19:20:28.165Z,23.20
2018-05-31T19:23:02.922Z,23.20
2018-05-31T19:25:37.325Z,23.50
2018-05-31T19:28:11.861Z,23.30
2018-05-31T19:30:51.937Z,22.70
2018-05-31T19:33:26.393Z,22.70
2018-05-31T19:36:07.295Z,24.80
2018-05-31T19:38:41.555Z,24.70
2018-05-31T19:41:15.853Z,25.20
2018-05-31T19:43:55.737Z,25.50
2018-05-31T19:46:30.202Z,25.80
2018-05-31T19:49:06.077Z,26.10
2018-05-31T19:51:46.370Z,26.10
2018-05-31T19:54:20.790Z,26.30
2018-05-31T19:56:55.184Z,26.40
2018-05-31T19:59:35.504Z,26.50
2018-05-31T20:02:15.653Z,26.60
2018-05-31T20:04:50.122Z,26.70
2018-05-31T20:07:25.358Z,26.70
2018-05-31T20:09:59.803Z,26.80
2018-05-31T20:12:34.411Z,26.90
2018-05-31T20:15:08.929Z,26.90
2018-05-31T20:17:43.357Z,27.00
2018-05-31T20:20:17.723Z,27.00
2018-05-31T20:22:52.004Z,27.00
2018-05-31T20:25:26.465Z,27.10
2018-05-31T20:28:01.021Z,27.10
2018-05-31T20:30:35.665Z,27.20
2018-05-31T20:33:09.948Z,27.20
2018-05-31T20:35:44.328Z,27.20
2018-05-31T20:38:18.604Z,27.20
2018-05-31T20:40:52.927Z,27.20
2018-05-31T20:43:27.440Z,27.30
2018-05-31T20:46:01.856Z,27.30
2018-05-31T20:48:36.284Z,27.30
2018-05-31T20:51:10.704Z,27.30
2018-05-31T20:53:45.097Z,27.30
2018-05-31T20:56:19.540Z,27.30
2018-05-31T20:58:54.684Z,27.40
2018-05-31T21:01:29.312Z,27.30
2018-05-31T21:04:03.588Z,27.40
2018-05-31T21:06:37.944Z,27.40
2018-05-31T21:09:12.240Z,27.40
2018-05-31T21:11:46.698Z,27.40
2018-05-31T21:14:22.010Z,27.30
2018-05-31T21:16:56.353Z,27.30
2018-05-31T21:19:30.764Z,27.30
2018-05-31T21:22:05.263Z,27.30
2018-05-31T21:24:39.912Z,27.30
2018-05-31T21:27:14.324Z,27.30
2018-05-31T21:29:48.756Z,27.30
2018-05-31T21:32:23.157Z,27.30
2018-05-31T21:34:57.433Z,27.30
2018-05-31T21:37:31.710Z,27.30
2018-05-31T21:40:06.018Z,27.20
2018-05-31T21:42:40.517Z,27.30
2018-05-31T21:45:14.965Z,27.30
2018-05-31T21:47:49.292Z,27.30
2018-05-31T21:50:23.573Z,27.20
2018-05-31T21:52:58.020Z,27.30
2018-05-31T21:55:32.445Z,27.30
2018-05-31T21:58:06.847Z,27.30
2018-05-31T22:00:46.709Z,27.30
2018-05-31T22:03:21.319Z,27.20
2018-05-31T22:05:55.680Z,27.20
2018-05-31T22:08:30.257Z,27.20
2018-05-31T22:11:05.008Z,27.20
2018-05-31T22:13:39.433Z,27.20
2018-05-31T22:16:13.856Z,27.20
2018-05-31T22:18:48.255Z,27.20
2018-05-31T22:21:22.688Z,27.20
2018-05-31T22:23:57.319Z,27.20
2018-05-31T22:26:31.916Z,27.20
2018-05-31T22:29:06.285Z,27.20
2018-05-31T22:31:40.668Z,27.20
2018-05-31T22:34:15.824Z,27.20
2018-05-31T22:36:50.076Z,27.10
2018-05-31T22:39:24.452Z,27.20
2018-05-31T22:41:58.977Z,27.20
2018-05-31T22:44:34.201Z,27.10
2018-05-31T22:47:09.413Z,27.10
2018-05-31T22:49:43.881Z,27.10
2018-05-31T22:52:18.281Z,27.10
2018-05-31T22:54:52.825Z,27.10
2018-05-31T22:57:27.548Z,27.10
2018-05-31T23:00:01.881Z,27.10
2018-05-31T23:02:36.184Z,27.10
2018-05-31T23:05:10.917Z,27.10
2018-05-31T23:07:45.233Z,27.10
2018-05-31T23:10:19.652Z,27.00
2018-05-31T23:12:54.077Z,27.10
2018-05-31T23:15:28.600Z,27.10
2018-05-31T23:18:02.904Z,27.00
2018-05-31T23:20:37.219Z,27.10
2018-05-31T23:23:11.581Z,27.10
2018-05-31T23:25:45.977Z,27.10
2018-05-31T23:28:20.440Z,27.10
2018-05-31T23:30:54.785Z,27.10
2018-05-31T23:33:29.253Z,27.10
2018-05-31T23:36:05.264Z,27.00
2018-05-31T23:38:39.822Z,26.90
2018-05-31T23:41:14.544Z,27.00
2018-05-31T23:43:48.991Z,27.00
2018-05-31T23:46:23.593Z,27.00
2018-05-31T23:48:57.972Z,27.00
2018-05-31T23:51:32.324Z,26.90
2018-05-31T23:54:06.737Z,27.00
2018-05-31T23:56:41.170Z,27.00
2018-05-31T23:59:15.688Z,27.00
